Time;durP1;ratioP1;P1;durP2;ratioP2;P2;SDS_P1;SDS_P2;PMS_P1;PMS_P2;Temp;Humidity;BMP_temperature;BMP_pressure;BME280_temperature;BME280_humidity;BME280_pressure;Samples;Min_cycle;Max_cycle;Signal;HPM_P1;HPM_P2
2023/10/12 00:01:59;;;;;;;1999.90;999.90;;;;;;;14.37;100.00;95500.25;5064155;28;20174;-45
2023/10/12 00:04:46;;;;;;;1999.90;999.90;;;;;;;14.37;100.00;95497.50;5063916;28;20173;-46
2023/10/12 00:07:15;;;;;;;1999.90;999.90;;;;;;;14.33;100.00;95505.03;5063110;28;20233;-46
2023/10/12 00:10:00;;;;;;;1999.90;999.90;;;;;;;14.30;100.00;95502.34;5063235;28;20180;-44
2023/10/12 00:12:26;;;;;;;1999.90;999.90;;;;;;;14.30;100.00;95505.88;5064142;28;20193;-46
2023/10/12 00:14:55;;;;;;;1999.90;999.90;;;;;;;14.30;100.00;95505.88;5063194;28;20502;-45
2023/10/12 00:17:21;;;;;;;1999.90;999.90;;;;;;;14.29;100.00;95504.34;5064132;28;20174;-44
2023/10/12 00:19:51;;;;;;;1999.90;999.90;;;;;;;14.26;100.00;95494.19;5063259;28;20208;-47
2023/10/12 00:22:16;;;;;;;1999.90;999.90;;;;;;;14.23;100.00;95494.25;5063229;28;20170;-47
2023/10/12 00:24:43;;;;;;;1999.90;999.90;;;;;;;14.23;100.00;95492.28;5063160;28;20289;-46
2023/10/12 00:27:10;;;;;;;1999.90;999.90;;;;;;;14.23;100.00;95494.25;5064545;28;20174;-47
2023/10/12 00:29:39;;;;;;;1999.90;999.90;;;;;;;14.23;100.00;95497.78;5066858;28;20447;-45
2023/10/12 00:32:08;;;;;;;1999.90;999.90;;;;;;;14.24;100.00;95496.56;5067308;28;20181;-44
2023/10/12 00:34:35;;;;;;;1999.90;999.90;;;;;;;14.22;100.00;95499.00;5066679;28;20401;-46
2023/10/12 00:37:03;;;;;;;1999.90;999.90;;;;;;;14.20;100.00;95493.09;5067348;28;20193;-45
2023/10/12 00:39:36;;;;;;;1999.90;999.90;;;;;;;14.23;100.00;95488.75;5067249;28;20169;-45
2023/10/12 00:42:03;;;;;;;1999.90;999.90;;;;;;;14.25;100.00;95476.16;5067167;28;20173;-46
2023/10/12 00:44:29;;;;;;;1999.90;999.90;;;;;;;14.29;100.00;95471.38;5067201;28;20162;-46
2023/10/12 00:49:26;;;;;;;1999.90;999.90;;;;;;;14.34;100.00;95468.13;5067621;28;20162;-44
2023/10/12 00:51:54;;;;;;;1999.90;999.90;;;;;;;14.35;100.00;95464.16;5066435;28;20166;-45
2023/10/12 00:54:40;;;;;;;1999.90;999.90;;;;;;;14.37;100.00;95461.78;5067201;28;20282;-45
2023/10/12 00:57:08;;;;;;;1999.90;999.90;;;;;;;14.37;100.00;95461.78;5066903;28;20209;-47
2023/10/12 00:59:34;;;;;;;1999.90;999.90;;;;;;;14.34;100.00;95468.13;5066398;28;20181;-45
2023/10/12 01:02:08;;;;;;;1999.90;999.90;;;;;;;14.25;100.00;95470.69;5066847;28;20174;-49
2023/10/12 01:04:34;;;;;;;1999.90;999.90;;;;;;;14.18;100.00;95476.28;5066840;28;20173;-47
2023/10/12 01:07:00;;;;;;;1999.90;999.90;;;;;;;14.10;100.00;95463.91;5066106;28;20218;-47
2023/10/12 01:09:29;;;;;;;1999.90;999.90;;;;;;;14.01;100.00;95469.16;5066714;28;20197;-46
2023/10/12 01:11:59;;;;;;;1999.90;999.90;;;;;;;13.97;100.00;95465.72;5066129;28;20166;-48
2023/10/12 01:14:30;;;;;;;1999.90;999.90;;;;;;;13.92;100.00;95457.22;5066605;28;20292;-48
2023/10/12 01:17:03;;;;;;;1999.90;999.90;;;;;;;13.92;100.00;95451.72;5066245;28;20170;-46
2023/10/12 01:19:34;;;;;;;1999.90;999.90;;;;;;;13.89;100.00;95453.34;5066605;28;20241;-46
2023/10/12 01:22:12;;;;;;;1999.90;999.90;;;;;;;13.84;100.00;95451.06;5066448;28;20174;-48
2023/10/12 01:27:20;;;;;;;1999.90;999.90;;;;;;;13.80;100.00;95433.91;5066914;28;20346;-45
2023/10/12 01:29:46;;;;;;;1999.90;999.90;;;;;;;13.80;100.00;95444.13;5065502;28;20173;-47
2023/10/12 01:34:37;;;;;;;1999.90;999.90;;;;;;;13.74;100.00;95441.09;5066666;28;20200;-47
2023/10/12 01:37:28;;;;;;;1999.90;999.90;;;;;;;13.73;100.00;95439.53;5066082;28;20174;-46
2023/10/12 01:39:57;;;;;;;1999.90;999.90;;;;;;;13.71;100.00;95446.63;5065590;28;20239;-47
2023/10/12 01:42:42;;;;;;;1999.90;999.90;;;;;;;13.65;100.00;95443.59;5065496;28;20170;-48
2023/10/12 01:45:19;;;;;;;1999.90;999.90;;;;;;;13.63;100.00;95443.28;5066176;28;20165;-44
2023/10/12 01:47:55;;;;;;;1999.90;999.90;;;;;;;13.63;100.00;95443.28;5066046;28;20192;-45
2023/10/12 01:50:21;;;;;;;1999.90;999.90;;;;;;;13.64;100.00;95447.56;5066100;28;20176;-47
2023/10/12 01:52:52;;;;;;;1999.90;999.90;;;;;;;13.62;100.00;95444.44;5065787;28;20464;-51
2023/10/12 01:55:27;;;;;;;1999.90;999.90;;;;;;;13.62;100.00;95438.97;5065796;28;20202;-45
2023/10/12 01:57:53;;;;;;;1999.90;999.90;;;;;;;13.57;100.00;95444.94;5065638;28;20197;-51
2023/10/12 02:00:25;;;;;;;1999.90;999.90;;;;;;;13.53;100.00;95446.97;5065215;28;20181;-48
2023/10/12 02:03:00;;;;;;;1999.90;999.90;;;;;;;13.55;100.00;95450.06;5065644;28;20172;-47
2023/10/12 02:05:29;;;;;;;1999.90;999.90;;;;;;;13.51;100.00;95443.88;5065453;28;20162;-48
2023/10/12 02:07:56;;;;;;;1999.90;999.90;;;;;;;13.47;100.00;95443.16;5065524;28;20213;-48
2023/10/12 02:10:24;;;;;;;1999.90;999.90;;;;;;;13.42;100.00;95443.66;5065566;28;20169;-45
2023/10/12 02:12:53;;;;;;;1999.90;999.90;;;;;;;13.43;100.00;95447.94;5064670;28;20174;-46
2023/10/12 02:15:20;;;;;;;1999.90;999.90;;;;;;;13.42;100.00;95442.88;5065652;28;20303;-47
2023/10/12 02:17:49;;;;;;;1999.90;999.90;;;;;;;13.39;100.00;95447.25;5065602;28;20351;-47
2023/10/12 02:20:15;;;;;;;1999.90;999.90;;;;;;;13.37;100.00;95448.84;5065431;28;20170;-45
2023/10/12 02:22:40;;;;;;;1999.90;999.90;;;;;;;13.35;100.00;95446.53;5065096;28;20176;-45
2023/10/12 02:25:18;;;;;;;1999.90;999.90;;;;;;;13.32;100.00;95436.38;5065328;28;20174;-45
2023/10/12 02:27:58;;;;;;;1999.90;999.90;;;;;;;13.30;100.00;95441.53;5065120;28;20471;-46
2023/10/12 02:30:30;;;;;;;1999.90;999.90;;;;;;;13.23;100.00;95441.66;5065155;28;20253;-46
2023/10/12 02:33:06;;;;;;;1999.90;999.90;;;;;;;13.20;100.00;95431.53;5064886;28;20166;-49
2023/10/12 02:35:36;;;;;;;1999.90;999.90;;;;;;;13.17;100.00;95437.84;5064996;28;20189;-48
2023/10/12 02:38:08;;;;;;;1999.90;999.90;;;;;;;13.13;100.00;95432.44;5065032;28;20178;-46
2023/10/12 02:40:35;;;;;;;1999.90;999.90;;;;;;;13.13;100.00;95434.38;5064356;28;20181;-48
2023/10/12 02:43:00;;;;;;;1999.90;999.90;;;;;;;13.11;100.00;95437.53;5064442;28;20247;-46
2023/10/12 02:45:29;;;;;;;1999.90;999.90;;;;;;;13.10;100.00;95435.22;5064300;28;20173;-48
2023/10/12 02:47:54;;;;;;;1999.90;999.90;;;;;;;13.07;100.00;95441.53;5064849;28;20169;-46
2023/10/12 02:50:27;;;;;;;1999.90;999.90;;;;;;;13.03;100.00;95433.38;5064114;28;20170;-45
2023/10/12 02:52:53;;;;;;;1999.90;999.90;;;;;;;13.01;100.00;95432.25;5064784;28;20173;-48
2023/10/12 02:57:53;;;;;;;1999.90;999.90;;;;;;;12.98;100.00;95428.38;5065109;28;20506;-46
2023/10/12 03:00:31;;;;;;;1999.90;999.90;;;;;;;12.97;100.00;95431.50;5064710;28;20171;-45
2023/10/12 03:03:05;;;;;;;1999.90;999.90;;;;;;;12.98;100.00;95427.59;5064648;28;20170;-47
2023/10/12 03:05:33;;;;;;;1999.90;999.90;;;;;;;12.97;100.00;95431.50;5064544;28;20173;-45
2023/10/12 03:08:06;;;;;;;1999.90;999.90;;;;;;;12.94;100.00;95432.34;5064575;28;20181;-45
2023/10/12 03:10:32;;;;;;;1999.90;999.90;;;;;;;12.93;100.00;95430.81;5064507;28;20475;-47
2023/10/12 03:13:04;;;;;;;1999.90;999.90;;;;;;;12.90;100.00;95431.63;5063895;28;20368;-45
2023/10/12 03:15:46;;;;;;;1999.90;999.90;;;;;;;12.85;100.00;95432.88;5064617;28;20177;-45
2023/10/12 03:18:12;;;;;;;1999.90;999.90;;;;;;;12.79;100.00;95431.03;5064329;28;20166;-45
2023/10/12 03:20:38;;;;;;;1999.90;999.90;;;;;;;12.75;100.00;95433.81;5063492;28;20174;-45
2023/10/12 03:23:19;;;;;;;1999.90;999.90;;;;;;;12.72;100.00;95429.16;5063886;28;20170;-47
2023/10/12 03:25:50;;;;;;;1999.90;999.90;;;;;;;12.71;100.00;95429.56;5064301;28;20229;-46
2023/10/12 03:28:43;;;;;;;1999.90;999.90;;;;;;;12.71;100.00;95437.78;5064306;28;20189;-46
2023/10/12 03:31:22;;;;;;;1999.90;999.90;;;;;;;12.71;100.00;95435.03;5064320;28;20250;-46
2023/10/12 03:33:55;;;;;;;1999.90;999.90;;;;;;;12.71;100.00;95435.84;5064165;28;20276;-44
2023/10/12 03:36:32;;;;;;;1999.90;999.90;;;;;;;12.69;100.00;95427.28;5063693;28;20173;-46
2023/10/12 03:47:15;;;;;;;1999.90;999.90;;;;;;;12.55;100.00;95413.78;5064677;28;20146;-45
2023/10/12 03:50:05;;;;;;;1999.90;999.90;;;;;;;12.54;100.00;95414.19;5064062;28;20170;-45
2023/10/12 03:52:34;;;;;;;1999.90;999.90;;;;;;;12.54;100.00;95414.19;5064206;28;20178;-45
2023/10/12 03:57:44;;;;;;;1999.90;999.90;;;;;;;12.58;100.00;95415.69;5064475;28;20557;-46
2023/10/12 04:02:54;;;;;;;1999.90;999.90;;;;;;;12.66;100.00;95417.13;5066081;28;20174;-49
2023/10/12 04:05:34;;;;;;;1999.90;999.90;;;;;;;12.77;100.00;95414.22;5067680;28;20170;-45
2023/10/12 04:16:27;;;;;;;1999.90;999.90;;;;;;;13.21;100.00;95424.84;5068172;28;20455;-44
2023/10/12 04:21:23;;;;;;;1999.90;999.90;;;;;;;13.51;100.00;95423.91;5068198;28;20177;-44
2023/10/12 04:29:09;;;;;;;1999.90;999.90;;;;;;;13.93;100.00;95437.56;5068036;28;20166;-45
2023/10/12 04:31:49;;;;;;;1999.90;999.90;;;;;;;14.04;100.00;95434.59;5067469;28;20186;-47
2023/10/12 04:34:16;;;;;;;1999.90;999.90;;;;;;;14.09;100.00;95434.88;5067343;28;20528;-47
2023/10/12 04:47:10;;;;;;;1999.90;999.90;;;;;;;14.25;100.00;95448.69;5067607;28;20154;-44
2023/10/12 04:57:27;;;;;;;1999.90;999.90;;;;;;;14.33;100.00;95455.59;5067253;28;20196;-46
2023/10/12 05:05:54;;;;;;;1999.90;999.90;;;;;;;14.44;100.00;95456.13;5067194;28;20158;-44
2023/10/12 05:08:03;;;;;;;1999.90;999.90;;;;;;;14.52;100.00;95457.50;5066761;28;20489;-44
2023/10/12 05:10:41;;;;;;;1999.90;999.90;;;;;;;14.51;100.00;95461.47;5066157;28;20174;-47
2023/10/12 05:13:10;;;;;;;1999.90;999.90;;;;;;;14.52;100.00;95451.22;5065982;28;20177;-46
2023/10/12 05:15:41;;;;;;;1999.90;999.90;;;;;;;14.58;100.00;95455.81;5065383;28;20176;-44
2023/10/12 05:18:07;;;;;;;1999.90;999.90;;;;;;;14.61;100.00;95456.94;5066375;28;20166;-46
2023/10/12 05:20:33;;;;;;;1999.90;999.90;;;;;;;14.66;100.00;95461.91;5066013;28;20166;-45
2023/10/12 05:22:58;;;;;;;1999.90;999.90;;;;;;;14.71;100.00;95464.16;5066288;28;20170;-46
2023/10/12 05:25:32;;;;;;;1999.90;999.90;;;;;;;14.74;100.00;95461.31;5066076;28;20178;-46
2023/10/12 05:28:08;;;;;;;1999.90;999.90;;;;;;;14.78;100.00;95464.75;5065318;28;20170;-46
2023/10/12 05:30:37;;;;;;;1999.90;999.90;;;;;;;14.79;100.00;95466.31;5065730;28;20173;-47
2023/10/12 05:33:05;;;;;;;1999.90;999.90;;;;;;;14.80;100.00;95467.88;5065534;28;20193;-46
2023/10/12 05:35:49;;;;;;;1999.90;999.90;;;;;;;14.88;100.00;95474.75;5065646;28;20170;-45
2023/10/12 05:38:17;;;;;;;1999.90;999.90;;;;;;;14.94;100.00;95478.50;5065829;28;20174;-51
2023/10/12 05:40:52;;;;;;;1999.90;999.90;;;;;;;15.01;100.00;95475.59;5066025;28;20166;-47
2023/10/12 05:43:22;;;;;;;1999.90;999.90;;;;;;;15.07;100.00;95471.13;5064982;28;20166;-52
2023/10/12 05:45:48;;;;;;;1999.90;999.90;;;;;;;15.14;100.00;95478.44;5065296;28;20170;-51
2023/10/12 05:48:16;;;;;;;1999.90;999.90;;;;;;;15.18;100.00;95488.16;5065337;28;20237;-49
2023/10/12 05:50:49;;;;;;;1999.90;999.90;;;;;;;15.25;100.00;95479.72;5065290;28;20165;-47
2023/10/12 05:53:14;;;;;;;1999.90;999.90;;;;;;;15.27;100.00;95484.81;5065815;28;20162;-49
2023/10/12 05:55:41;;;;;;;1999.90;999.90;;;;;;;15.26;100.00;95497.78;5065711;28;20415;-45
2023/10/12 05:58:13;;;;;;;1999.90;999.90;;;;;;;15.29;100.00;95493.38;5065165;28;20196;-45
2023/10/12 06:00:44;;;;;;;1999.90;999.90;;;;;;;15.32;100.00;95498.81;5065567;28;20234;-47
2023/10/12 06:03:15;;;;;;;1999.90;999.90;;;;;;;15.32;100.00;95496.06;5065402;28;20173;-47
2023/10/12 06:05:43;;;;;;;1999.90;999.90;;;;;;;15.34;100.00;95510.16;5065311;28;20243;-45
2023/10/12 06:08:10;;;;;;;1999.90;999.90;;;;;;;15.35;100.00;95498.00;5065432;28;20233;-48
2023/10/12 06:10:41;;;;;;;1999.90;999.90;;;;;;;15.37;100.00;95500.31;5065173;28;20191;-45
2023/10/12 06:13:15;;;;;;;1999.90;999.90;;;;;;;15.42;100.00;95505.28;5065272;28;20186;-47
2023/10/12 06:15:42;;;;;;;1999.90;999.90;;;;;;;15.43;100.00;95515.88;5065318;28;20447;-46
2023/10/12 06:18:13;;;;;;;1999.90;999.90;;;;;;;15.47;100.00;95511.06;5065205;28;20285;-46
2023/10/12 06:20:41;;;;;;;1999.90;999.90;;;;;;;15.51;100.00;95510.94;5064618;28;20170;-49
2023/10/12 06:23:13;;;;;;;1999.90;999.90;;;;;;;15.54;100.00;95508.13;5064248;28;20170;-50
2023/10/12 06:25:39;;;;;;;1999.90;999.90;;;;;;;15.58;100.00;95514.31;5064099;28;20241;-46
2023/10/12 06:28:16;;;;;;;1999.90;999.90;;;;;;;15.66;100.00;95512.91;5064598;28;20166;-46
2023/10/12 06:30:45;;;;;;;1999.90;999.90;;;;;;;15.76;100.00;95517.38;5065172;28;20166;-46
2023/10/12 06:33:15;;;;;;;1999.90;999.90;;;;;;;15.92;100.00;95525.59;5064884;28;20177;-47
2023/10/12 06:36:01;;;;;;;1999.90;999.90;;;;;;;16.07;100.00;95528.75;5064299;28;20173;-45
2023/10/12 06:38:47;;;;;;;1999.90;999.90;;;;;;;16.23;100.00;95529.47;5065020;28;20166;-48
2023/10/12 06:44:33;;;;;;;1999.90;999.90;;;;;;;16.42;100.00;95543.56;5065255;28;20165;-47
2023/10/12 06:46:49;;;;;;;1999.90;999.90;;;;;;;16.63;100.00;95545.69;5061084;28;20216;-49
2023/10/12 06:49:18;;;;;;;1999.90;999.90;;;;;;;16.88;100.00;95534.72;5064182;28;20174;-45
2023/10/12 06:51:54;;;;;;;1999.90;999.90;;;;;;;17.11;100.00;95548.22;5064627;28;20178;-44
2023/10/12 06:54:33;;;;;;;1999.90;999.90;;;;;;;17.31;100.00;95535.72;5064614;28;20194;-48
2023/10/12 06:59:52;;;;;;;1999.90;999.90;;;;;;;17.87;100.00;95544.94;5065319;28;20158;-47
2023/10/12 07:02:22;;;;;;;1999.90;999.90;;;;;;;17.96;100.00;95544.25;5064513;28;20181;-48
2023/10/12 07:04:53;;;;;;;1999.90;999.90;;;;;;;18.28;100.00;95552.97;5064385;28;20166;-46
2023/10/12 07:07:29;;;;;;;1999.90;999.90;;;;;;;18.81;100.00;95551.06;5063966;28;20216;-46
2023/10/12 07:10:12;;;;;;;1999.90;999.90;;;;;;;19.28;100.00;95557.19;5064394;28;20166;-46
2023/10/12 07:12:47;;;;;;;1999.90;999.90;;;;;;;20.00;100.00;95557.41;5064417;28;20161;-45
2023/10/12 07:15:23;;;;;;;1999.90;999.90;;;;;;;21.09;100.00;95561.69;5064216;28;20207;-48
2023/10/12 07:17:49;;;;;;;1999.90;999.90;;;;;;;21.83;100.00;95561.75;5064355;28;20183;-45
2023/10/12 07:20:42;;;;;;;1999.90;999.90;;;;;;;22.02;100.00;95563.16;5063779;28;20170;-46
2023/10/12 07:23:34;;;;;;;1999.90;999.90;;;;;;;22.48;100.00;95561.59;5063775;28;20189;-48
2023/10/12 07:26:00;;;;;;;1999.90;999.90;;;;;;;22.50;100.00;95569.47;5063640;28;20188;-47
2023/10/12 07:28:32;;;;;;;1999.90;999.90;;;;;;;22.43;100.00;95570.59;5064220;28;20197;-46
2023/10/12 07:31:23;;;;;;;1999.90;999.90;;;;;;;22.79;100.00;95568.78;5064186;28;20162;-47
2023/10/12 07:36:35;;;;;;;1999.90;999.90;;;;;;;25.33;94.31;95571.16;5065298;28;20158;-49
2023/10/12 07:39:19;;;;;;;1999.90;999.90;;;;;;;26.71;80.13;95572.88;5071026;28;20200;-47
2023/10/12 07:41:55;;;;;;;1999.90;999.90;;;;;;;27.71;71.24;95571.78;5070249;28;20247;-46
2023/10/12 07:44:22;;;;;;;1999.90;999.90;;;;;;;28.50;66.74;95573.97;5070813;28;20165;-46
2023/10/12 07:46:48;;;;;;;1999.90;999.90;;;;;;;28.84;62.48;95566.91;5070743;28;20199;-47
2023/10/12 07:52:13;;;;;;;1999.90;999.90;;;;;;;28.62;62.44;95566.28;5071268;28;20176;-45
2023/10/12 07:54:47;;;;;;;1999.90;999.90;;;;;;;28.72;62.32;95576.69;5071010;28;20209;-45
2023/10/12 07:57:19;;;;;;;1999.90;999.90;;;;;;;28.94;60.67;95570.97;5070891;28;20242;-47
2023/10/12 08:02:32;;;;;;;1999.90;999.90;;;;;;;28.41;60.72;95581.91;5071167;28;20187;-47
2023/10/12 08:04:58;;;;;;;1999.90;999.90;;;;;;;27.70;65.49;95572.28;5070294;28;20197;-47
2023/10/12 08:07:27;;;;;;;1999.90;999.90;;;;;;;27.97;65.49;95572.28;5069652;28;20225;-46
2023/10/12 08:09:55;;;;;;;1999.90;999.90;;;;;;;28.18;64.59;95567.91;5070730;28;20177;-50
2023/10/12 08:12:26;;;;;;;1999.90;999.90;;;;;;;29.28;62.22;95574.38;5070047;28;20200;-47
2023/10/12 08:15:07;;;;;;;1999.90;999.90;;;;;;;29.70;58.40;95579.47;5069927;28;20264;-47
2023/10/12 08:17:35;;;;;;;1999.90;999.90;;;;;;;30.48;54.87;95574.66;5070350;28;20165;-46
2023/10/12 08:22:54;;;;;;;1999.90;999.90;;;;;;;31.52;50.07;95580.25;5071008;28;20203;-47
2023/10/12 08:25:27;;;;;;;1999.90;999.90;;;;;;;32.18;46.82;95584.81;5070459;28;20192;-50
2023/10/12 08:27:53;;;;;;;1999.90;999.90;;;;;;;30.44;49.34;95580.59;5070407;28;20304;-47
2023/10/12 08:30:23;;;;;;;1999.90;999.90;;;;;;;30.10;51.07;95572.97;5070386;28;20172;-46
2023/10/12 08:33:09;;;;;;;1999.90;999.90;;;;;;;30.10;51.60;95578.59;5070351;28;20164;-46
2023/10/12 08:35:55;;;;;;;1999.90;999.90;;;;;;;30.72;51.66;95580.28;5070546;28;20277;-47
2023/10/12 08:38:33;;;;;;;1999.90;999.90;;;;;;;32.28;46.56;95586.72;5070377;28;20166;-46
2023/10/12 08:43:52;;;;;;;1999.90;999.90;;;;;;;33.30;41.35;95583.66;5070498;28;20204;-45
2023/10/12 08:52:04;;;;;;;1999.90;999.90;;;;;;;34.70;39.06;95576.88;5067600;28;20200;-46
2023/10/12 08:54:37;;;;;;;1999.90;999.90;;;;;;;33.92;39.23;95574.50;5067213;28;20255;-46
2023/10/12 08:57:09;;;;;;;1999.90;999.90;;;;;;;32.15;42.53;95572.53;5066306;28;20201;-47
2023/10/12 08:59:38;;;;;;;1999.90;999.90;;;;;;;32.65;42.14;95568.78;5066944;28;20205;-52
2023/10/12 09:02:18;;;;;;;1999.90;999.90;;;;;;;31.90;43.61;95571.16;5066366;28;20168;-52
2023/10/12 09:04:48;;;;;;;1999.90;999.90;;;;;;;31.44;44.97;95563.16;5066155;28;20185;-47
2023/10/12 09:07:19;;;;;;;1999.90;999.90;;;;;;;30.82;46.65;95564.53;5066506;28;20214;-45
2023/10/12 09:09:56;;;;;;;1999.90;999.90;;;;;;;30.74;47.62;95546.69;5066702;28;20237;-49
2023/10/12 09:12:23;;;;;;;1999.90;999.90;;;;;;;29.66;52.04;95548.78;5066926;28;20165;-47
2023/10/12 09:14:54;;;;;;;1999.90;999.90;;;;;;;29.54;53.54;95543.75;5065865;28;20248;-47
2023/10/12 09:17:29;;;;;;;1999.90;999.90;;;;;;;29.32;54.63;95538.28;5066523;28;20159;-47
2023/10/12 09:20:26;;;;;;;1999.90;999.90;;;;;;;29.07;56.35;95547.91;5065969;28;20153;-47
2023/10/12 09:22:45;;;;;;;1999.90;999.90;;;;;;;28.19;60.16;95541.31;5066578;28;20173;-46
2023/10/12 09:25:26;;;;;;;1999.90;999.90;;;;;;;28.54;60.73;95537.16;5065885;28;20165;-48
2023/10/12 09:27:55;;;;;;;1999.90;999.90;;;;;;;28.04;63.17;95534.47;5066385;28;20161;-46
2023/10/12 09:30:25;;;;;;;1999.90;999.90;;;;;;;28.45;61.88;95543.06;5065700;28;20174;-46
2023/10/12 09:33:10;;;;;;;1999.90;999.90;;;;;;;28.07;63.06;95528.59;5065655;28;20162;-46
2023/10/12 09:35:42;;;;;;;1999.90;999.90;;;;;;;28.38;62.78;95536.66;5066316;28;20189;-48
2023/10/12 09:38:08;;;;;;;1999.90;999.90;;;;;;;28.12;63.26;95536.25;5066325;28;20169;-48
2023/10/12 09:40:42;;;;;;;1999.90;999.90;;;;;;;28.77;61.33;95530.16;5065463;28;20166;-47
2023/10/12 09:43:15;;;;;;;1999.90;999.90;;;;;;;30.17;57.93;95532.97;5066065;28;20237;-48
2023/10/12 09:45:47;;;;;;;1999.90;999.90;;;;;;;32.23;49.57;95528.16;5066153;28;20168;-46
2023/10/12 09:48:24;;;;;;;1999.90;999.90;;;;;;;32.93;46.32;95533.00;5066251;28;20154;-46
2023/10/12 09:50:51;;;;;;;1999.90;999.90;;;;;;;32.13;47.04;95531.97;5066107;28;20166;-47
2023/10/12 09:53:24;;;;;;;1999.90;999.90;;;;;;;31.67;49.35;95527.59;5065350;28;20166;-46
2023/10/12 09:56:10;;;;;;;1999.90;999.90;;;;;;;32.76;46.95;95532.53;5065750;28;20158;-47
2023/10/12 09:58:43;;;;;;;1999.90;999.90;;;;;;;33.69;43.84;95526.84;5065126;28;20193;-48
2023/10/12 10:01:15;;;;;;;1999.90;999.90;;;;;;;32.84;46.05;95521.31;5065370;28;20165;-46
2023/10/12 10:03:52;;;;;;;1999.90;999.90;;;;;;;32.16;47.52;95526.00;5065358;28;20234;-46
2023/10/12 10:06:31;;;;;;;1999.90;999.90;;;;;;;34.47;42.00;95513.50;5065023;28;20286;-48
2023/10/12 10:09:10;;;;;;;1999.90;999.90;;;;;;;35.12;40.49;95512.91;5065449;28;20168;-46
2023/10/12 10:11:38;;;;;;;1999.90;999.90;;;;;;;32.85;43.54;95515.13;5065298;28;20245;-47
2023/10/12 10:14:03;;;;;;;1999.90;999.90;;;;;;;32.30;45.88;95513.38;5064743;28;20216;-47
2023/10/12 10:16:37;;;;;;;1999.90;999.90;;;;;;;32.18;45.63;95520.56;5065425;28;20162;-46
2023/10/12 10:19:13;;;;;;;1999.90;999.90;;;;;;;31.49;49.25;95508.63;5065312;28;20165;-47
2023/10/12 10:21:57;;;;;;;1999.90;999.90;;;;;;;32.82;48.36;95519.06;5065320;28;20162;-45
2023/10/12 10:24:26;;;;;;;1999.90;999.90;;;;;;;33.83;44.23;95516.22;5065269;28;20185;-48
2023/10/12 10:26:58;;;;;;;1999.90;999.90;;;;;;;32.29;46.57;95506.19;5064563;28;20220;-48
2023/10/12 10:29:53;;;;;;;1999.90;999.90;;;;;;;30.95;48.35;95510.97;5065102;28;20178;-47
2023/10/12 10:32:37;;;;;;;1999.90;999.90;;;;;;;30.29;51.51;95511.78;5065306;28;20159;-48
2023/10/12 10:35:08;;;;;;;1999.90;999.90;;;;;;;29.69;53.98;95504.72;5064966;28;20190;-47
2023/10/12 10:37:47;;;;;;;1999.90;999.90;;;;;;;29.26;54.58;95517.84;5064892;28;20154;-45
2023/10/12 10:40:17;;;;;;;1999.90;999.90;;;;;;;28.75;56.26;95513.03;5064729;28;20174;-47
2023/10/12 10:42:57;;;;;;;1999.90;999.90;;;;;;;28.28;57.05;95507.34;5064930;28;20170;-50
2023/10/12 10:45:24;;;;;;;1999.90;999.90;;;;;;;28.80;56.27;95498.94;5065211;28;20233;-47
2023/10/12 10:47:50;;;;;;;1999.90;999.90;;;;;;;28.64;57.02;95501.84;5064262;28;20190;-45
2023/10/12 10:50:15;;;;;;;1999.90;999.90;;;;;;;30.28;51.35;95499.00;5064292;28;20162;-47
2023/10/12 10:52:44;;;;;;;1999.90;999.90;;;;;;;30.64;48.19;95489.84;5064663;28;20173;-45
2023/10/12 10:55:11;;;;;;;1999.90;999.90;;;;;;;31.35;44.83;95492.94;5064943;28;20213;-47
2023/10/12 10:57:39;;;;;;;1999.90;999.90;;;;;;;30.35;46.30;95499.19;5064040;28;20208;-54
2023/10/12 11:00:18;;;;;;;1999.90;999.90;;;;;;;29.77;47.69;95498.00;5064131;28;20169;-56
2023/10/12 11:02:52;;;;;;;1999.90;999.90;;;;;;;29.30;49.77;95502.22;5064904;28;20174;-54
2023/10/12 11:05:19;;;;;;;1999.90;999.90;;;;;;;29.03;51.90;95489.13;5064669;28;20173;-52
2023/10/12 11:07:50;;;;;;;1999.90;999.90;;;;;;;28.87;52.25;95475.13;5064525;28;20245;-54
2023/10/12 11:10:19;;;;;;;1999.90;999.90;;;;;;;28.49;53.10;95487.34;5064449;28;20170;-53
2023/10/12 11:12:45;;;;;;;1999.90;999.90;;;;;;;28.33;56.51;95476.91;5063033;28;20166;-51
2023/10/12 11:15:11;;;;;;;1999.90;999.90;;;;;;;28.37;55.51;95466.16;5063863;28;20261;-54
2023/10/12 11:18:29;;;;;;;1999.90;999.90;;;;;;;28.06;55.79;95465.28;5063842;28;20217;-51
2023/10/12 11:20:38;;;;;;;1999.90;999.90;;;;;;;27.85;54.85;95466.88;5057729;28;20174;-51
2023/10/12 11:23:07;;;;;;;1999.90;999.90;;;;;;;27.66;55.50;95465.88;5063885;28;20166;-50
2023/10/12 11:25:39;;;;;;;1999.90;999.90;;;;;;;27.19;58.01;95466.91;5064248;28;20170;-53
2023/10/12 11:28:26;;;;;;;1999.90;999.90;;;;;;;26.99;60.00;95475.53;5064320;28;20208;-53
2023/10/12 11:30:52;;;;;;;1999.90;999.90;;;;;;;27.21;60.40;95469.97;5064061;28;20220;-51
2023/10/12 11:33:27;;;;;;;1999.90;999.90;;;;;;;27.01;61.16;95478.63;5064161;28;20166;-53
2023/10/12 11:35:54;;;;;;;1999.90;999.90;;;;;;;27.17;62.26;95482.72;5064302;28;20165;-58
2023/10/12 11:38:22;;;;;;;1999.90;999.90;;;;;;;27.24;60.30;95480.19;5064480;28;20271;-58
2023/10/12 11:40:55;;;;;;;1999.90;999.90;;;;;;;27.32;59.74;95464.34;5063303;28;20172;-59
2023/10/12 11:43:44;;;;;;;1999.90;999.90;;;;;;;27.25;60.22;95467.69;5063656;28;20170;-59
2023/10/12 11:46:09;;;;;;;1999.90;999.90;;;;;;;27.26;62.78;95455.19;5064100;28;20166;-56
2023/10/12 11:48:35;;;;;;;1999.90;999.90;;;;;;;27.08;64.49;95457.69;5063624;28;20284;-52
2023/10/12 11:51:11;;;;;;;1999.90;999.90;;;;;;;27.55;61.77;95465.09;5063614;28;20237;-57
2023/10/12 11:53:38;;;;;;;1999.90;999.90;;;;;;;27.59;62.01;95455.16;5063540;28;20162;-57
2023/10/12 11:56:12;;;;;;;1999.90;999.90;;;;;;;27.56;61.21;95456.19;5063945;28;20481;-55
2023/10/12 11:58:38;;;;;;;1999.90;999.90;;;;;;;27.53;62.72;95448.78;5063566;28;20190;-55
2023/10/12 12:01:03;;;;;;;1999.90;999.90;;;;;;;27.69;62.22;95453.63;5063313;28;20177;-55
2023/10/12 12:03:29;;;;;;;1999.90;999.90;;;;;;;27.50;63.29;95441.38;5063352;28;20198;-56
2023/10/12 12:05:55;;;;;;;1999.90;999.90;;;;;;;27.34;66.59;95438.59;5063205;28;20209;-56
2023/10/12 12:08:24;;;;;;;1999.90;999.90;;;;;;;27.53;60.68;95451.59;5063880;28;20166;-56
2023/10/12 12:13:21;;;;;;;1999.90;999.90;;;;;;;27.39;61.05;95438.59;5064377;28;20162;-54
2023/10/12 12:15:48;;;;;;;1999.90;999.90;;;;;;;27.44;61.63;95437.84;5063025;28;20178;-53
2023/10/12 12:18:19;;;;;;;1999.90;999.90;;;;;;;27.60;57.84;95444.66;5063268;28;20235;-56
2023/10/12 12:20:49;;;;;;;1999.90;999.90;;;;;;;27.28;59.27;95432.25;5063717;28;20166;-57
2023/10/12 12:23:15;;;;;;;1999.90;999.90;;;;;;;27.25;58.95;95433.25;5064052;28;20236;-55
2023/10/12 12:25:41;;;;;;;1999.90;999.90;;;;;;;27.27;58.70;95434.28;5067485;28;20241;-54
2023/10/12 12:28:07;;;;;;;1999.90;999.90;;;;;;;27.33;59.09;95426.63;5067537;28;20245;-55
2023/10/12 12:30:39;;;;;;;1999.90;999.90;;;;;;;27.15;61.58;95432.72;5067010;28;20186;-53
2023/10/12 12:33:15;;;;;;;1999.90;999.90;;;;;;;26.96;60.97;95425.31;5066821;28;20240;-56
2023/10/12 12:36:08;;;;;;;1999.90;999.90;;;;;;;26.68;62.48;95433.72;5067358;28;20247;-55
2023/10/12 12:40:59;;;;;;;1999.90;999.90;;;;;;;26.76;61.71;95440.34;5067772;28;20158;-57
2023/10/12 12:43:25;;;;;;;1999.90;999.90;;;;;;;26.47;64.28;95435.16;5067120;28;20164;-57
2023/10/12 12:45:52;;;;;;;1999.90;999.90;;;;;;;26.57;63.42;95441.31;5066559;28;20173;-54